Terminal Aerodrome Forecast
Issued by NWS

Home | Current Version | Previous Version | Text Only | Print | Product List | Glossary On
Versions: 1 2 3 4 5 6 7 8 9 10 11 12 13
895
FTUS46 KLOX 180543
TAFSBP
TAF
KSBP 180543Z 1806/1906 VRB03KT P6SM OVC250
     FM181100 15005KT 3SM BR BKN007 BKN150
     FM181600 15010KT P6SM SCT015 BKN090
     FM182100 15012KT P6SM -SHRA BKN020 OVC040
     FM190300 14015G20KT 5SM -RA BR OVC015=

USA.gov is the U.S. government's official web portal to all federal, state and local government web resources and services.